Time;durP1;ratioP1;P1;durP2;ratioP2;P2;SDS_P1;SDS_P2;PMS_P1;PMS_P2;Temp;Humidity;BMP_temperature;BMP_pressure;BME280_temperature;BME280_humidity;BME280_pressure;Samples;Min_cycle;Max_cycle;Signal;HPM_P1;HPM_P2
2023/11/22 00:02:21;;;;;;;25.40;14.10;;;;;;;-0.17;100.00;100435.77;105265;1260;60498;-57
2023/11/22 00:04:48;;;;;;;26.80;15.80;;;;;;;-0.16;100.00;100435.94;105092;1262;73166;-57
2023/11/22 00:07:16;;;;;;;33.00;17.10;;;;;;;-0.15;100.00;100433.66;104929;1258;66709;-58
2023/11/22 00:09:43;;;;;;;26.70;15.80;;;;;;;-0.13;100.00;100433.50;105078;1258;72625;-57
2023/11/22 00:12:11;;;;;;;31.60;18.20;;;;;;;-0.12;100.00;100428.91;105242;1257;60482;-57
2023/11/22 00:14:38;;;;;;;29.40;18.30;;;;;;;-0.12;100.00;100429.80;105245;1262;60603;-58
2023/11/22 00:17:06;;;;;;;34.40;19.00;;;;;;;-0.14;100.00;100426.97;108657;1257;76065;-56
2023/11/22 00:19:34;;;;;;;35.90;21.20;;;;;;;-0.15;100.00;100424.66;108825;1256;65831;-56
2023/11/22 00:22:09;;;;;;;36.00;20.10;;;;;;;-0.17;100.00;100424.14;108882;1258;72254;-56
2023/11/22 00:24:37;;;;;;;29.10;18.30;;;;;;;-0.19;100.00;100426.95;108721;1257;61084;-55
2023/11/22 00:27:05;;;;;;;31.50;18.50;;;;;;;-0.21;100.00;100426.05;108924;1257;60238;-56
2023/11/22 00:29:32;;;;;;;36.00;20.20;;;;;;;-0.21;100.00;100422.34;108761;1260;73243;-55
2023/11/22 00:32:00;;;;;;;31.40;17.40;;;;;;;-0.21;100.00;100423.92;108860;1260;65664;-56
2023/11/22 00:34:27;;;;;;;31.60;18.00;;;;;;;-0.20;100.00;100426.77;108746;1254;72723;-56
2023/11/22 00:36:55;;;;;;;28.10;17.40;;;;;;;-0.19;100.00;100427.65;108723;1256;61644;-56
2023/11/22 00:39:22;;;;;;;26.70;16.60;;;;;;;-0.19;100.00;100429.95;108793;1256;58851;-56
2023/11/22 00:41:49;;;;;;;24.40;15.70;;;;;;;-0.17;100.00;100428.19;108818;1254;73858;-55
2023/11/22 00:44:18;;;;;;;31.50;18.20;;;;;;;-0.15;100.00;100424.66;108767;1254;67057;-55
2023/11/22 00:46:45;;;;;;;29.60;17.20;;;;;;;-0.13;100.00;100425.56;108669;1257;71414;-55
2023/11/22 00:49:13;;;;;;;28.10;17.50;;;;;;;-0.15;100.00;100422.02;108740;1257;58760;-56
2023/11/22 00:51:40;;;;;;;27.00;16.60;;;;;;;-0.18;100.00;100416.02;108763;1257;60123;-55
2023/11/22 00:54:08;;;;;;;29.20;17.70;;;;;;;-0.19;100.00;100411.42;108904;1256;72624;-56
2023/11/22 00:56:35;;;;;;;31.30;18.80;;;;;;;-0.19;100.00;100413.19;108751;1254;66203;-55
2023/11/22 00:59:03;;;;;;;30.10;18.10;;;;;;;-0.18;100.00;100411.96;108757;1257;72734;-55
2023/11/22 01:01:31;;;;;;;30.70;17.80;;;;;;;-0.17;100.00;100410.89;108818;1257;59913;-55
2023/11/22 01:03:59;;;;;;;32.40;19.30;;;;;;;-0.16;100.00;100407.02;108740;1254;59996;-55
2023/11/22 01:06:27;;;;;;;36.20;20.20;;;;;;;-0.14;100.00;100405.27;108738;1257;73888;-55
2023/11/22 01:08:54;;;;;;;28.10;17.60;;;;;;;-0.12;100.00;100405.28;105984;1257;67227;-55
2023/11/22 01:11:21;;;;;;;30.50;17.10;;;;;;;-0.11;100.00;100411.11;105128;1260;71388;-54
2023/11/22 01:13:49;;;;;;;24.30;15.50;;;;;;;-0.12;100.00;100413.23;105659;1261;60555;-54
2023/11/22 01:16:16;;;;;;;24.50;16.00;;;;;;;-0.12;100.00;100413.75;105201;1260;60450;-55
2023/11/22 01:18:46;;;;;;;30.00;18.10;;;;;;;-0.12;100.00;100412.17;105244;1260;72551;-55
2023/11/22 01:21:14;;;;;;;33.80;19.00;;;;;;;-0.13;100.00;100414.45;105147;1263;66721;-55
2023/11/22 01:23:42;;;;;;;27.30;15.90;;;;;;;-0.13;100.00;100414.10;105012;1257;72725;-55
2023/11/22 01:26:09;;;;;;;30.10;17.10;;;;;;;-0.13;100.00;100416.40;105199;1258;60606;-54
2023/11/22 01:28:37;;;;;;;27.50;17.10;;;;;;;-0.12;100.00;100413.75;106279;1255;60530;-54
2023/11/22 01:31:04;;;;;;;28.10;18.00;;;;;;;-0.13;100.00;100410.04;105243;1260;72671;-55
2023/11/22 01:33:34;;;;;;;33.30;20.00;;;;;;;-0.13;100.00;100410.74;105206;1260;66646;-56
2023/11/22 01:36:02;;;;;;;29.20;18.00;;;;;;;-0.15;100.00;100411.24;105285;1256;71479;-55
2023/11/22 01:38:29;;;;;;;34.00;18.40;;;;;;;-0.18;100.00;100411.07;105255;1260;60504;-54
2023/11/22 01:40:57;;;;;;;31.70;18.20;;;;;;;-0.20;100.00;100412.83;105603;1260;60451;-55
2023/11/22 01:43:26;;;;;;;32.30;19.60;;;;;;;-0.24;100.00;100415.96;105273;1260;73832;-55
2023/11/22 01:45:55;;;;;;;31.70;18.00;;;;;;;-0.26;100.00;100412.61;105054;1258;66953;-56
2023/11/22 01:48:22;;;;;;;28.80;19.10;;;;;;;-0.28;100.00;100411.37;105079;1261;72850;-54
2023/11/22 01:50:50;;;;;;;27.20;16.70;;;;;;;-0.31;100.00;100409.23;105401;1252;61478;-56
2023/11/22 01:53:17;;;;;;;26.50;16.80;;;;;;;-0.32;100.00;100415.03;105273;1254;60505;-55
2023/11/22 01:55:46;;;;;;;31.60;17.30;;;;;;;-0.35;100.00;100420.14;105284;1258;73939;-55
2023/11/22 01:58:13;;;;;;;26.20;16.90;;;;;;;-0.38;100.00;100425.41;105346;1254;65907;-55
2023/11/22 02:00:59;;;;;;;27.20;16.30;;;;;;;-0.40;100.00;100425.92;105391;1254;72695;-55
2023/11/22 02:03:30;;;;;;;27.00;16.20;;;;;;;-0.39;100.00;100430.87;105859;1265;60546;-56
2023/11/22 02:05:58;;;;;;;26.60;15.80;;;;;;;-0.39;100.00;100434.58;108033;1252;60138;-56
2023/11/22 02:08:28;;;;;;;27.20;16.40;;;;;;;-0.37;100.00;100436.89;105973;1254;73044;-55
2023/11/22 02:10:58;;;;;;;26.60;15.80;;;;;;;-0.36;100.00;100431.96;105795;1254;66873;-55
2023/11/22 02:13:30;;;;;;;26.90;17.40;;;;;;;-0.37;100.00;100433.01;105249;1254;71473;-55
2023/11/22 02:15:59;;;;;;;23.10;15.70;;;;;;;-0.37;100.00;100428.77;105406;1257;60655;-55
2023/11/22 02:18:27;;;;;;;25.80;16.50;;;;;;;-0.39;100.00;100426.98;107139;1253;60543;-55
2023/11/22 02:20:56;;;;;;;28.30;16.30;;;;;;;-0.41;100.00;100423.98;108329;1254;73884;-55
2023/11/22 02:23:23;;;;;;;22.90;15.20;;;;;;;-0.40;100.00;100422.75;105375;1254;67319;-55
2023/11/22 02:25:51;;;;;;;24.10;15.10;;;;;;;-0.39;100.00;100421.17;105349;1254;71189;-55
2023/11/22 02:28:18;;;;;;;27.10;15.00;;;;;;;-0.36;100.00;100415.55;105376;1259;60565;-55
2023/11/22 02:30:45;;;;;;;25.10;16.10;;;;;;;-0.34;100.00;100421.03;105409;1261;60411;-55
2023/11/22 02:33:13;;;;;;;27.30;16.20;;;;;;;-0.34;100.00;100419.62;105319;1259;73917;-54
2023/11/22 02:35:40;;;;;;;25.70;16.40;;;;;;;-0.33;100.00;100422.79;105468;1254;67045;-55
2023/11/22 02:38:08;;;;;;;25.50;15.70;;;;;;;-0.31;100.00;100423.67;106586;1257;72848;-54
2023/11/22 02:40:35;;;;;;;28.50;16.80;;;;;;;-0.33;100.00;100418.20;105338;1254;60922;-54
2023/11/22 02:43:07;;;;;;;26.10;15.40;;;;;;;-0.34;100.00;100417.67;105364;1261;60454;-54
2023/11/22 02:45:35;;;;;;;26.00;15.60;;;;;;;-0.35;100.00;100422.09;105368;1258;73926;-54
2023/11/22 02:48:03;;;;;;;24.70;15.90;;;;;;;-0.38;100.00;100418.18;105388;1261;65908;-54
2023/11/22 02:50:31;;;;;;;25.90;16.90;;;;;;;-0.43;100.00;100420.09;105419;1254;73076;-54
2023/11/22 02:52:59;;;;;;;27.30;16.90;;;;;;;-0.46;100.00;100417.25;102961;1254;3411350;-53
2023/11/22 02:57:19;;;;;;;28.40;16.40;;;;;;;-0.48;100.00;100406.29;102498;1288;601673;-54
2023/11/22 02:59:47;;;;;;;28.40;17.20;;;;;;;-0.51;100.00;100471.52;105350;1265;59813;-55
2023/11/22 03:02:17;;;;;;;30.90;18.30;;;;;;;-0.52;100.00;100461.81;104440;1266;60153;-54
2023/11/22 03:04:44;;;;;;;27.00;16.70;;;;;;;-0.56;100.00;100455.79;105529;1268;70867;-54
2023/11/22 03:07:12;;;;;;;24.20;15.00;;;;;;;-0.61;100.00;100454.34;104481;1266;66583;-55
2023/11/22 03:09:41;;;;;;;24.40;15.80;;;;;;;-0.65;100.00;100451.13;104396;1272;72739;-52
2023/11/22 03:12:08;;;;;;;25.80;16.20;;;;;;;-0.68;100.00;100448.64;102036;1268;3391988;-55
2023/11/22 03:14:36;;;;;;;25.10;14.60;;;;;;;-0.68;100.00;100448.29;104396;1263;59350;-54
2023/11/22 03:17:05;;;;;;;24.20;15.40;;;;;;;-0.67;100.00;100445.46;104493;1263;72646;-54
2023/11/22 03:19:33;;;;;;;26.30;15.70;;;;;;;-0.64;100.00;100449.20;108184;1263;65793;-55
2023/11/22 03:22:02;;;;;;;26.50;15.10;;;;;;;-0.61;100.00;100448.89;108489;1261;71462;-54
2023/11/22 03:24:30;;;;;;;25.50;14.50;;;;;;;-0.59;100.00;100449.23;108535;1258;61061;-55
2023/11/22 03:26:58;;;;;;;24.80;15.80;;;;;;;-0.57;100.00;100452.25;108483;1265;58410;-55
2023/11/22 03:29:26;;;;;;;25.10;15.20;;;;;;;-0.53;100.00;100454.94;108737;1259;73001;-55
2023/11/22 03:31:54;;;;;;;28.50;15.40;;;;;;;-0.50;100.00;100456.17;108631;1257;66923;-54
2023/11/22 03:34:21;;;;;;;27.20;16.10;;;;;;;-0.48;100.00;100453.90;108567;1256;72961;-55
2023/11/22 03:36:49;;;;;;;26.30;15.10;;;;;;;-0.49;100.00;100449.14;108783;1256;61541;-55
2023/11/22 03:39:16;;;;;;;27.40;16.40;;;;;;;-0.46;100.00;100455.69;108655;1256;59373;-55
2023/11/22 03:41:44;;;;;;;29.20;17.50;;;;;;;-0.43;100.00;100458.17;108711;1256;72140;-54
2023/11/22 03:44:12;;;;;;;27.50;18.10;;;;;;;-0.41;100.00;100458.17;108758;1261;65500;-56
2023/11/22 03:46:40;;;;;;;27.10;17.50;;;;;;;-0.42;100.00;100460.65;108691;1257;72752;-55
2023/11/22 03:49:08;;;;;;;27.40;17.70;;;;;;;-0.41;100.00;100469.11;108739;1256;59730;-55
2023/11/22 03:51:36;;;;;;;32.10;20.60;;;;;;;-0.39;100.00;100472.30;108841;1256;60002;-54
2023/11/22 03:54:03;;;;;;;31.00;18.50;;;;;;;-0.38;100.00;100467.03;108800;1256;71845;-55
2023/11/22 03:56:31;;;;;;;27.70;17.70;;;;;;;-0.37;100.00;100467.04;108656;1260;66347;-55
2023/11/22 03:58:59;;;;;;;32.50;19.40;;;;;;;-0.37;100.00;100470.39;108768;1259;72731;-55
2023/11/22 04:01:26;;;;;;;28.40;19.00;;;;;;;-0.34;100.00;100472.00;108736;1258;61068;-55
2023/11/22 04:03:54;;;;;;;31.10;20.20;;;;;;;-0.33;100.00;100473.59;108796;1260;60017;-55
2023/11/22 04:06:22;;;;;;;29.00;18.90;;;;;;;-0.31;100.00;100473.59;108790;1256;73078;-54
2023/11/22 04:08:50;;;;;;;32.30;20.00;;;;;;;-0.30;100.00;100469.55;108768;1256;65652;-55
2023/11/22 04:11:17;;;;;;;29.80;19.80;;;;;;;-0.33;100.00;100466.88;106246;1260;74178;-54
2023/11/22 04:13:45;;;;;;;26.00;17.70;;;;;;;-0.39;100.00;100465.80;105078;1260;59733;-54
2023/11/22 04:16:13;;;;;;;30.00;18.80;;;;;;;-0.43;100.00;100470.16;105802;1262;61868;-54
2023/11/22 04:18:41;;;;;;;28.80;17.30;;;;;;;-0.49;100.00;100467.13;107303;1257;71768;-53
2023/11/22 04:21:09;;;;;;;26.50;18.20;;;;;;;-0.56;100.00;100470.07;105450;1262;65825;-53
2023/11/22 04:23:36;;;;;;;27.20;17.30;;;;;;;-0.61;100.00;100469.14;105222;1261;73138;-54
2023/11/22 04:26:07;;;;;;;30.10;18.90;;;;;;;-0.67;100.00;100469.08;105151;1270;59746;-54
2023/11/22 04:28:34;;;;;;;32.70;18.30;;;;;;;-0.70;100.00;100469.60;104999;1261;59564;-54
2023/11/22 04:31:02;;;;;;;28.60;18.00;;;;;;;-0.70;100.00;100468.36;105066;1262;72277;-55
2023/11/22 04:33:29;;;;;;;29.40;18.10;;;;;;;-0.70;100.00;100472.60;105100;1257;65824;-55
2023/11/22 04:35:57;;;;;;;26.40;18.00;;;;;;;-0.69;100.00;100474.02;106218;1260;71422;-53
2023/11/22 04:38:25;;;;;;;29.10;17.60;;;;;;;-0.70;100.00;100477.19;106032;1262;61098;-54
2023/11/22 04:40:52;;;;;;;22.00;16.60;;;;;;;-0.72;100.00;100472.05;105172;1262;59717;-54
2023/11/22 04:43:20;;;;;;;24.60;16.40;;;;;;;-0.76;100.00;100476.23;104895;1262;73835;-55
2023/11/22 04:45:47;;;;;;;26.00;16.20;;;;;;;-0.79;100.00;100474.29;105894;1257;66208;-55
2023/11/22 04:48:15;;;;;;;31.00;18.00;;;;;;;-0.84;100.00;100481.98;104978;1256;72981;-55
2023/11/22 04:50:42;;;;;;;26.10;17.30;;;;;;;-0.86;100.00;100483.39;105551;1258;61094;-55
2023/11/22 04:53:10;;;;;;;26.30;17.10;;;;;;;-0.88;100.00;100485.65;105364;1262;59675;-56
2023/11/22 04:55:38;;;;;;;25.40;16.60;;;;;;;-0.90;100.00;100483.33;105679;1257;73406;-56
2023/11/22 04:58:06;;;;;;;27.00;16.70;;;;;;;-0.91;100.00;100480.85;105367;1262;64802;-55
2023/11/22 05:00:33;;;;;;;23.70;15.50;;;;;;;-0.93;100.00;100484.71;105848;1261;71691;-55
2023/11/22 05:03:01;;;;;;;26.80;16.90;;;;;;;-0.94;100.00;100487.73;105135;1257;60114;-55
2023/11/22 05:05:28;;;;;;;25.60;16.20;;;;;;;-0.94;100.00;100489.84;105010;1257;59781;-55
2023/11/22 05:07:56;;;;;;;26.70;17.30;;;;;;;-0.91;100.00;100495.83;105248;1263;70974;-55
2023/11/22 05:10:23;;;;;;;25.20;17.10;;;;;;;-0.88;100.00;100500.45;105115;1260;66117;-56
2023/11/22 05:12:51;;;;;;;26.60;16.40;;;;;;;-0.86;100.00;100502.41;105078;1260;71960;-56
2023/11/22 05:15:19;;;;;;;21.70;14.90;;;;;;;-0.84;100.00;100502.95;105685;1257;59746;-55
2023/11/22 05:17:46;;;;;;;24.60;15.70;;;;;;;-0.79;100.00;100504.07;105468;1256;61475;-55
2023/11/22 05:20:14;;;;;;;25.60;16.20;;;;;;;-0.74;100.00;100514.84;105181;1262;71680;-53
2023/11/22 05:22:41;;;;;;;22.20;14.80;;;;;;;-0.69;100.00;100510.85;105826;1257;67460;-54
2023/11/22 05:25:09;;;;;;;24.80;15.20;;;;;;;-0.67;100.00;100514.91;105166;1262;74492;-53
2023/11/22 05:27:37;;;;;;;22.50;15.70;;;;;;;-0.69;100.00;100509.27;108199;1262;61681;-54
2023/11/22 05:30:05;;;;;;;21.10;15.60;;;;;;;-0.73;100.00;100511.52;105360;1270;60847;-53
2023/11/22 05:32:33;;;;;;;22.00;15.80;;;;;;;-0.78;100.00;100512.90;105229;1261;75135;-54
2023/11/22 05:35:01;;;;;;;20.80;15.10;;;;;;;-0.78;100.00;100512.36;105043;1262;67224;-54
2023/11/22 05:37:28;;;;;;;23.00;15.40;;;;;;;-0.80;100.00;100507.41;105183;1260;70722;-54
2023/11/22 05:39:56;;;;;;;21.50;13.60;;;;;;;-0.82;100.00;100514.95;104616;1259;61708;-54
2023/11/22 05:42:24;;;;;;;25.70;14.50;;;;;;;-0.84;100.00;100520.92;104565;1263;59575;-54
2023/11/22 05:44:52;;;;;;;22.90;13.80;;;;;;;-0.83;100.00;100522.34;105094;1262;73513;-53
2023/11/22 05:47:20;;;;;;;23.20;15.50;;;;;;;-0.82;100.00;100526.41;105127;1270;65686;-53
2023/11/22 05:49:47;;;;;;;26.80;15.70;;;;;;;-0.84;100.00;100528.85;105169;1257;70408;-54
2023/11/22 05:52:14;;;;;;;27.40;16.70;;;;;;;-0.87;100.00;100533.41;105154;1263;61078;-53
2023/11/22 05:54:42;;;;;;;28.00;17.30;;;;;;;-0.92;100.00;100540.76;105291;1260;59747;-54
2023/11/22 05:57:09;;;;;;;23.70;15.50;;;;;;;-0.93;100.00;100547.27;106137;1257;73637;-54
2023/11/22 05:59:37;;;;;;;19.00;13.80;;;;;;;-0.93;100.00;100558.00;105196;1260;66955;-54
2023/11/22 06:02:04;;;;;;;24.80;14.60;;;;;;;-0.93;100.00;100557.66;105218;1259;71460;-54
2023/11/22 06:04:32;;;;;;;24.40;15.40;;;;;;;-0.94;100.00;100561.71;105267;1262;60285;-54
2023/11/22 06:06:59;;;;;;;25.50;14.30;;;;;;;-0.97;100.00;100560.45;108637;1257;58855;-54
2023/11/22 06:09:27;;;;;;;24.90;14.90;;;;;;;-0.95;100.00;100563.47;105185;1261;71842;-54
2023/11/22 06:11:54;;;;;;;19.90;13.70;;;;;;;-0.93;100.00;100566.46;105585;1255;66449;-54
2023/11/22 06:14:22;;;;;;;23.00;14.50;;;;;;;-0.91;100.00;100559.96;105419;1258;71497;-52
2023/11/22 06:16:49;;;;;;;20.90;14.40;;;;;;;-0.87;100.00;100562.48;105461;1254;59753;-54
2023/11/22 06:19:17;;;;;;;23.80;16.00;;;;;;;-0.84;100.00;100568.86;105359;1259;59541;-54
2023/11/22 06:21:45;;;;;;;28.20;17.40;;;;;;;-0.79;100.00;100569.45;105478;1257;71847;-52
2023/11/22 06:24:15;;;;;;;22.30;15.80;;;;;;;-0.74;100.00;100574.25;109111;1252;65494;-55
2023/11/22 06:26:45;;;;;;;25.40;16.10;;;;;;;-0.72;100.00;100571.45;109043;1253;70853;-55
2023/11/22 06:29:14;;;;;;;22.10;15.00;;;;;;;-0.69;100.00;100572.37;109079;1254;60945;-55
2023/11/22 06:31:42;;;;;;;28.00;16.40;;;;;;;-0.65;100.00;100574.52;109125;1254;60113;-55
2023/11/22 06:34:09;;;;;;;27.90;17.00;;;;;;;-0.59;100.00;100587.26;109026;1254;73304;-55
2023/11/22 06:36:37;;;;;;;23.10;13.80;;;;;;;-0.55;100.00;100591.73;109234;1257;67388;-55
2023/11/22 06:39:05;;;;;;;23.70;15.30;;;;;;;-0.53;100.00;100590.34;109108;1256;71435;-55
2023/11/22 06:41:33;;;;;;;30.00;14.50;;;;;;;-0.55;100.00;100590.48;109047;1254;59384;-55
2023/11/22 06:44:00;;;;;;;30.10;17.80;;;;;;;-0.55;100.00;100599.83;108345;1254;59801;-55
2023/11/22 06:46:28;;;;;;;24.30;16.80;;;;;;;-0.54;100.00;100607.25;104755;1259;72520;-56
2023/11/22 06:48:56;;;;;;;31.00;17.90;;;;;;;-0.52;100.00;100608.86;104999;1258;64868;-54
2023/11/22 06:51:24;;;;;;;25.10;15.60;;;;;;;-0.54;100.00;100603.89;105416;1254;71551;-54
2023/11/22 06:53:54;;;;;;;29.50;17.80;;;;;;;-0.57;100.00;100604.73;105215;1257;60464;-54
2023/11/22 06:56:25;;;;;;;27.10;16.50;;;;;;;-0.59;100.00;100603.13;109095;1251;59370;-55
2023/11/22 06:58:53;;;;;;;19.70;13.30;;;;;;;-0.58;100.00;100599.44;109036;1254;73181;-55
2023/11/22 07:01:23;;;;;;;25.50;14.70;;;;;;;-0.55;100.00;100593.48;108961;1254;65824;-55
2023/11/22 07:03:52;;;;;;;20.60;14.20;;;;;;;-0.53;100.00;100590.33;109075;1252;72735;-55
2023/11/22 07:06:22;;;;;;;21.50;12.70;;;;;;;-0.53;100.00;100605.50;109062;1253;59976;-55
2023/11/22 07:08:50;;;;;;;18.50;13.20;;;;;;;-0.53;100.00;100616.61;109153;1254;61895;-55
2023/11/22 07:11:24;;;;;;;17.00;11.80;;;;;;;-0.52;100.00;100619.45;109005;1257;74387;-54
2023/11/22 07:13:52;;;;;;;22.70;12.70;;;;;;;-0.49;100.00;100623.16;105537;1267;66173;-54
2023/11/22 07:16:20;;;;;;;17.00;11.80;;;;;;;-0.45;100.00;100619.34;107698;1254;72101;-62
2023/11/22 07:18:48;;;;;;;19.00;12.30;;;;;;;-0.42;100.00;100622.34;106987;1255;60594;-53
2023/11/22 07:21:16;;;;;;;20.10;13.70;;;;;;;-0.37;100.00;100626.63;105276;1258;60447;-53
2023/11/22 07:23:45;;;;;;;19.80;11.70;;;;;;;-0.35;100.00;100628.60;105863;1256;74386;-53
2023/11/22 07:26:16;;;;;;;18.00;12.30;;;;;;;-0.37;100.00;100625.75;105263;1258;65870;-55
2023/11/22 07:28:44;;;;;;;22.40;14.60;;;;;;;-0.38;100.00;100625.73;106069;1257;71822;-54
2023/11/22 07:31:11;;;;;;;20.20;13.30;;;;;;;-0.43;100.00;100628.87;105288;1257;60555;-54
2023/11/22 07:33:39;;;;;;;23.70;13.40;;;;;;;-0.44;100.00;100628.52;105302;1267;60442;-54
2023/11/22 07:36:07;;;;;;;17.40;13.20;;;;;;;-0.44;100.00;100629.05;105354;1257;73878;-54
2023/11/22 07:38:35;;;;;;;22.40;16.20;;;;;;;-0.44;100.00;100626.21;105511;1259;66103;-54
2023/11/22 07:41:06;;;;;;;26.00;16.00;;;;;;;-0.43;100.00;100629.05;106641;1257;72903;-54
2023/11/22 07:43:35;;;;;;;25.90;16.10;;;;;;;-0.45;100.00;100628.86;106176;1258;60626;-54
2023/11/22 07:46:12;;;;;;;18.10;13.70;;;;;;;-0.45;100.00;100629.55;105194;1257;60434;-54
2023/11/22 07:48:46;;;;;;;19.20;12.50;;;;;;;-0.48;100.00;100636.58;104741;1256;71663;-54
2023/11/22 07:51:17;;;;;;;20.50;13.80;;;;;;;-0.52;100.00;100643.77;107674;1253;65808;-55
2023/11/22 07:53:44;;;;;;;18.90;12.50;;;;;;;-0.58;100.00;100645.63;105015;1257;75646;-54
2023/11/22 07:56:13;;;;;;;19.00;12.20;;;;;;;-0.64;100.00;100640.45;105117;1253;61559;-55
2023/11/22 07:58:43;;;;;;;14.80;10.40;;;;;;;-0.70;100.00;100644.97;106073;1256;60468;-54
2023/11/22 08:01:13;;;;;;;14.10;10.70;;;;;;;-0.76;100.00;100651.06;105290;1259;72750;-56
2023/11/22 08:03:45;;;;;;;15.90;11.00;;;;;;;-0.82;100.00;100654.17;107198;1254;66979;-53
2023/11/22 08:06:16;;;;;;;15.00;10.20;;;;;;;-0.88;100.00;100654.80;105525;1257;71411;-54
2023/11/22 08:08:45;;;;;;;14.20;9.10;;;;;;;-0.95;100.00;100661.07;106984;1254;60424;-54
2023/11/22 08:11:20;;;;;;;14.70;8.80;;;;;;;-1.02;100.00;100664.33;105703;1254;60735;-55
2023/11/22 08:13:48;;;;;;;15.20;10.00;;;;;;;-1.06;100.00;100660.92;108819;1253;73900;-54
2023/11/22 08:16:16;;;;;;;12.40;8.90;;;;;;;-1.10;100.00;100661.92;105142;1257;66158;-55
2023/11/22 08:18:43;;;;;;;11.90;9.00;;;;;;;-1.11;100.00;100663.33;105122;1256;70783;-54
2023/11/22 08:21:11;;;;;;;12.70;9.40;;;;;;;-1.12;100.00;100662.42;105121;1257;60574;-55
2023/11/22 08:23:39;;;;;;;14.60;8.90;;;;;;;-1.14;100.00;100664.16;105442;1260;60538;-54
2023/11/22 08:26:08;;;;;;;14.40;9.40;;;;;;;-1.21;100.00;100667.25;105144;1256;73417;-54
2023/11/22 08:28:36;;;;;;;21.20;11.90;;;;;;;-1.22;100.00;100669.16;105681;1254;66266;-54
2023/11/22 08:31:09;;;;;;;24.70;10.20;;;;;;;-1.24;100.00;100672.31;105163;1254;73097;-53
2023/11/22 08:33:37;;;;;;;16.50;10.00;;;;;;;-1.26;100.00;100678.42;105202;1255;60908;-51
2023/11/22 08:36:08;;;;;;;13.70;7.90;;;;;;;-1.28;100.00;100682.48;105459;1257;60585;-53
2023/11/22 08:38:36;;;;;;;11.20;7.20;;;;;;;-1.29;100.00;100678.24;107496;1255;72633;-53
2023/11/22 08:41:07;;;;;;;15.40;7.20;;;;;;;-1.29;100.00;100672.77;105242;1253;67011;-54
2023/11/22 08:43:35;;;;;;;11.30;7.80;;;;;;;-1.32;100.00;100671.48;105124;1254;72861;-54
2023/11/22 08:46:06;;;;;;;10.40;7.50;;;;;;;-1.38;100.00;100666.11;105309;1253;60499;-53
2023/11/22 08:48:41;;;;;;;11.30;7.90;;;;;;;-1.45;100.00;100666.38;105449;1251;61015;-54
2023/11/22 08:51:10;;;;;;;14.60;8.90;;;;;;;-1.49;100.00;100665.61;105542;1254;74751;-54
2023/11/22 08:53:38;;;;;;;8.40;7.40;;;;;;;-1.57;100.00;100666.89;105421;1252;68065;-55
2023/11/22 08:56:08;;;;;;;12.10;7.80;;;;;;;-1.66;100.00;100665.52;105637;1254;72681;-54
2023/11/22 08:58:38;;;;;;;7.90;6.40;;;;;;;-1.69;100.00;100663.89;105541;1255;60956;-54
2023/11/22 09:01:07;;;;;;;11.60;6.20;;;;;;;-1.71;100.00;100665.27;105379;1255;60431;-54
2023/11/22 09:03:35;;;;;;;9.50;6.70;;;;;;;-1.75;100.00;100663.80;105857;1254;72637;-54
2023/11/22 09:06:03;;;;;;;10.10;6.10;;;;;;;-1.76;100.00;100657.80;105558;1256;65846;-53
2023/11/22 09:08:30;;;;;;;8.70;5.70;;;;;;;-1.78;100.00;100657.77;105650;1254;72787;-53
2023/11/22 09:10:58;;;;;;;9.60;5.40;;;;;;;-1.80;100.00;100665.32;105439;1255;61000;-54
2023/11/22 09:13:25;;;;;;;8.70;6.50;;;;;;;-1.78;100.00;100661.11;105398;1257;60536;-55
2023/11/22 09:15:53;;;;;;;6.50;5.10;;;;;;;-1.76;100.00;100661.66;109026;1254;73960;-55
2023/11/22 09:18:21;;;;;;;7.70;4.40;;;;;;;-1.75;100.00;100655.17;109119;1253;67380;-56
2023/11/22 09:20:49;;;;;;;6.30;3.60;;;;;;;-1.76;100.00;100658.50;109122;1253;72740;-55
2023/11/22 09:23:16;;;;;;;7.30;4.90;;;;;;;-1.80;100.00;100659.15;109131;1253;61919;-55
2023/11/22 09:25:44;;;;;;;10.60;5.60;;;;;;;-1.84;100.00;100663.66;109051;1252;60017;-55
2023/11/22 09:28:12;;;;;;;7.40;5.50;;;;;;;-1.86;100.00;100661.85;109081;1254;74058;-55
2023/11/22 09:30:40;;;;;;;8.60;5.90;;;;;;;-1.84;100.00;100664.88;109022;1254;67921;-55
2023/11/22 09:33:10;;;;;;;9.00;6.00;;;;;;;-1.82;100.00;100665.80;109145;1253;71892;-55
2023/11/22 09:35:38;;;;;;;11.70;6.60;;;;;;;-1.78;100.00;100669.55;109063;1253;60841;-55
2023/11/22 09:38:09;;;;;;;8.60;6.50;;;;;;;-1.76;100.00;100673.10;109031;1254;60593;-55
2023/11/22 09:40:41;;;;;;;11.50;7.10;;;;;;;-1.75;100.00;100674.54;109058;1254;74335;-55
2023/11/22 09:43:15;;;;;;;10.90;6.70;;;;;;;-1.75;100.00;100670.66;109172;1253;66997;-55
2023/11/22 09:45:45;;;;;;;10.70;6.90;;;;;;;-1.76;100.00;100667.13;109092;1253;72515;-55
2023/11/22 09:48:20;;;;;;;10.50;7.50;;;;;;;-1.79;100.00;100666.73;109046;1253;61051;-56
2023/11/22 09:50:58;;;;;;;15.80;9.00;;;;;;;-1.82;100.00;100671.25;108186;1257;58813;-55
2023/11/22 09:53:40;;;;;;;16.70;10.00;;;;;;;-1.89;100.00;100669.03;109027;1252;74369;-55
2023/11/22 09:56:07;;;;;;;15.80;10.10;;;;;;;-1.98;100.00;100673.27;109065;1253;66107;-55
2023/11/22 09:58:36;;;;;;;10.80;8.40;;;;;;;-2.00;100.00;100675.35;109190;1252;70467;-55
2023/11/22 10:01:04;;;;;;;12.60;7.20;;;;;;;-1.99;100.00;100681.71;109023;1253;60156;-55
2023/11/22 10:03:31;;;;;;;13.70;7.60;;;;;;;-1.98;100.00;100690.52;106958;1254;58810;-54
2023/11/22 10:05:59;;;;;;;6.60;5.30;;;;;;;-2.00;100.00;100695.94;105415;1257;72665;-55
2023/11/22 10:08:27;;;;;;;8.10;5.50;;;;;;;-2.01;100.00;100690.27;105257;1254;65746;-54
2023/11/22 10:10:54;;;;;;;7.30;5.60;;;;;;;-1.99;100.00;100690.14;107483;1257;71488;-54
2023/11/22 10:13:22;;;;;;;7.60;5.10;;;;;;;-1.99;100.00;100688.40;105435;1256;60544;-54
2023/11/22 10:15:51;;;;;;;7.00;4.50;;;;;;;-1.98;100.00;100690.52;105359;1257;60523;-54
2023/11/22 10:18:19;;;;;;;12.00;5.90;;;;;;;-1.98;100.00;100695.11;105772;1254;73927;-55
2023/11/22 10:20:50;;;;;;;14.30;6.00;;;;;;;-1.96;100.00;100700.23;106432;1254;67158;-55
2023/11/22 10:23:19;;;;;;;6.80;4.50;;;;;;;-1.97;100.00;100711.47;105411;1260;72059;-53
2023/11/22 10:25:52;;;;;;;8.50;5.00;;;;;;;-1.99;100.00;100713.19;105806;1254;60540;-54
2023/11/22 10:28:19;;;;;;;9.30;5.10;;;;;;;-2.03;100.00;100708.55;106445;1254;61663;-53
2023/11/22 10:30:48;;;;;;;8.10;5.40;;;;;;;-2.06;100.00;100701.13;105388;1253;73952;-53
2023/11/22 10:33:15;;;;;;;9.00;6.10;;;;;;;-2.10;100.00;100707.70;105481;1257;67497;-54
2023/11/22 10:35:54;;;;;;;5.70;5.10;;;;;;;-2.16;100.00;100710.09;107080;1254;72981;-54
2023/11/22 10:38:21;;;;;;;7.90;5.70;;;;;;;-2.19;100.00;100710.70;105496;1254;60466;-53
2023/11/22 10:40:51;;;;;;;8.00;5.40;;;;;;;-2.21;100.00;100713.32;105280;1256;60499;-54
2023/11/22 10:43:20;;;;;;;10.80;6.30;;;;;;;-2.22;100.00;100713.83;106394;1254;73854;-53
2023/11/22 10:45:51;;;;;;;5.40;4.40;;;;;;;-2.22;100.00;100708.91;105325;1253;66917;-54
2023/11/22 10:48:20;;;;;;;7.40;5.40;;;;;;;-2.21;100.00;100698.55;105264;1259;70482;-54
2023/11/22 10:50:48;;;;;;;8.20;6.20;;;;;;;-2.21;100.00;100695.73;107157;1254;61505;-53
2023/11/22 10:53:18;;;;;;;9.70;5.80;;;;;;;-2.21;100.00;100696.27;105516;1257;59121;-54
2023/11/22 10:55:49;;;;;;;8.70;5.80;;;;;;;-2.20;100.00;100692.41;106003;1254;73999;-53
2023/11/22 10:58:17;;;;;;;5.70;5.10;;;;;;;-2.20;100.00;100692.92;105351;1255;66617;-54
2023/11/22 11:00:44;;;;;;;6.60;5.10;;;;;;;-2.22;100.00;100693.09;106390;1254;70390;-55
2023/11/22 11:03:14;;;;;;;6.50;4.80;;;;;;;-2.21;100.00;100698.37;105163;1253;61022;-53
2023/11/22 11:05:47;;;;;;;4.70;4.20;;;;;;;-2.22;100.00;100707.34;107335;1256;60541;-54